createdAt,value
2022-09-10T00:02:20.498Z,3.90
2022-09-10T00:07:24.402Z,4.13
2022-09-10T00:12:27.849Z,4.43
2022-09-10T00:17:31.331Z,4.28
2022-09-10T00:22:34.726Z,3.63
2022-09-10T00:27:38.587Z,4.30
2022-09-10T00:32:41.743Z,3.80
2022-09-10T00:37:45.059Z,4.35
2022-09-10T00:42:48.524Z,3.97
2022-09-10T00:47:56.708Z,3.63
2022-09-10T00:53:04.675Z,3.42
2022-09-10T00:58:12.330Z,3.60
2022-09-10T01:03:17.236Z,3.42
2022-09-10T01:08:21.058Z,3.53
2022-09-10T01:14:06.537Z,3.10
2022-09-10T01:19:34.885Z,4.10
2022-09-10T01:25:03.441Z,2.95
2022-09-10T01:30:09.446Z,3.38
2022-09-10T01:35:29.575Z,4.78
2022-09-10T01:40:34.118Z,2.90
2022-09-10T01:45:47.541Z,2.80
2022-09-10T01:51:04.273Z,3.08
2022-09-10T01:56:35.281Z,3.10
2022-09-10T02:01:50.085Z,3.55
2022-09-10T02:06:56.643Z,3.17
2022-09-10T02:12:00.282Z,3.20
2022-09-10T02:22:29.371Z,2.85
2022-09-10T02:27:34.462Z,2.78
2022-09-10T02:32:37.753Z,2.78
2022-09-10T02:37:42.847Z,2.78
2022-09-10T02:42:47.756Z,3.30
2022-09-10T02:47:55.946Z,3.08
2022-09-10T02:53:00.484Z,3.42
2022-09-10T02:58:03.798Z,4.25
2022-09-10T03:03:08.657Z,4.35
2022-09-10T03:08:12.619Z,4.95
2022-09-10T03:13:19.946Z,3.83
2022-09-10T03:18:23.653Z,3.95
2022-09-10T03:23:26.943Z,3.90
2022-09-10T03:28:30.184Z,3.90
2022-09-10T03:33:35.137Z,3.55
2022-09-10T03:38:39.249Z,3.40
2022-09-10T03:43:42.547Z,3.67
2022-09-10T03:48:50.027Z,3.80
2022-09-10T03:53:58.913Z,4.18
2022-09-10T03:59:02.084Z,4.20
2022-09-10T04:04:05.997Z,4.07
2022-09-10T04:09:09.411Z,3.15
2022-09-10T04:14:13.489Z,3.78
2022-09-10T04:19:19.008Z,3.40
2022-09-10T04:24:24.576Z,3.45
2022-09-10T04:29:28.881Z,3.33
2022-09-10T04:34:32.415Z,3.70
2022-09-10T04:39:35.896Z,3.65
2022-09-10T04:44:40.030Z,3.75
2022-09-10T04:49:43.547Z,3.60
2022-09-10T04:54:48.221Z,3.45
2022-09-10T04:59:53.086Z,3.85
2022-09-10T05:04:58.736Z,3.40
2022-09-10T05:10:02.852Z,3.17
2022-09-10T05:15:07.136Z,3.17
2022-09-10T05:20:11.364Z,3.50
2022-09-10T05:25:23.794Z,3.40
2022-09-10T05:30:27.507Z,3.45
2022-09-10T05:35:31.067Z,3.17
2022-09-10T05:40:35.812Z,4.13
2022-09-10T05:45:40.157Z,3.95
2022-09-10T05:50:44.024Z,3.85
2022-09-10T05:55:47.541Z,3.72
2022-09-10T06:00:52.550Z,3.47
2022-09-10T06:05:56.857Z,4.72
2022-09-10T06:11:06.613Z,4.35
2022-09-10T06:16:17.902Z,4.40
2022-09-10T06:21:28.280Z,4.07
2022-09-10T06:26:33.519Z,3.63
2022-09-10T06:31:42.493Z,4.28
2022-09-10T06:36:48.432Z,4.60
2022-09-10T06:41:53.212Z,5.05
2022-09-10T06:48:18.793Z,4.30
2022-09-10T06:52:40.046Z,4.72
2022-09-10T06:57:46.482Z,5.75
2022-09-10T07:02:53.280Z,4.70
2022-09-10T07:07:58.619Z,4.38
2022-09-10T07:13:02.984Z,5.05
2022-09-10T07:18:07.275Z,4.88
2022-09-10T07:23:14.655Z,5.50
2022-09-10T07:28:18.885Z,6.32
2022-09-10T07:33:25.363Z,5.75
2022-09-10T07:38:29.150Z,5.03
2022-09-10T07:43:32.994Z,5.20
2022-09-10T07:48:37.319Z,6.75
2022-09-10T07:53:50.032Z,5.72
2022-09-10T07:58:55.979Z,5.25
2022-09-10T08:04:05.166Z,5.47
2022-09-10T08:09:11.080Z,5.22
2022-09-10T08:14:31.079Z,5.15
2022-09-10T08:19:39.936Z,5.18
2022-09-10T08:24:43.774Z,5.05
2022-09-10T08:29:47.390Z,4.93
2022-09-10T08:34:50.747Z,4.82
2022-09-10T08:39:54.531Z,5.03
2022-09-10T08:45:31.196Z,5.10
2022-09-10T08:50:54.214Z,5.75
2022-09-10T08:56:05.011Z,4.68
2022-09-10T09:01:16.040Z,5.07
2022-09-10T09:06:41.588Z,4.83
2022-09-10T09:11:49.467Z,6.07
2022-09-10T09:17:20.447Z,5.78
2022-09-10T09:22:38.147Z,5.82
2022-09-10T09:27:49.746Z,6.70
2022-09-10T09:32:59.132Z,5.75
2022-09-10T09:38:08.782Z,6.53
2022-09-10T09:43:33.355Z,5.70
2022-09-10T09:48:41.467Z,5.32
2022-09-10T09:53:48.208Z,5.13
2022-09-10T09:58:54.236Z,5.72
2022-09-10T10:04:00.818Z,5.57
2022-09-10T10:09:20.831Z,5.43
2022-09-10T10:14:32.048Z,5.55
2022-09-10T10:19:40.657Z,6.50
2022-09-10T10:24:46.022Z,5.95
2022-09-10T10:30:05.504Z,6.22
2022-09-10T10:35:33.190Z,5.30
2022-09-10T10:40:46.940Z,5.72
2022-09-10T10:46:27.670Z,6.03
2022-09-10T10:57:12.416Z,5.72
2022-09-10T11:07:33.968Z,5.93
2022-09-10T11:12:46.845Z,6.20
2022-09-10T11:18:15.198Z,6.50
2022-09-10T11:23:44.981Z,5.72
2022-09-10T11:29:12.798Z,5.57
2022-09-10T11:34:35.450Z,5.30
2022-09-10T11:39:51.295Z,5.47
2022-09-10T11:45:16.844Z,5.28
2022-09-10T11:50:41.566Z,4.82
2022-09-10T11:56:09.990Z,5.28
2022-09-10T12:01:28.487Z,4.47
2022-09-10T12:06:44.493Z,5.00
2022-09-10T12:11:57.697Z,5.13
2022-09-10T12:17:28.805Z,4.38
2022-09-10T12:22:36.349Z,4.80
2022-09-10T12:27:49.157Z,4.50
2022-09-10T12:32:54.337Z,4.43
2022-09-10T12:38:37.221Z,4.05
2022-09-10T12:43:40.427Z,4.50
2022-09-10T12:49:10.988Z,4.50
2022-09-10T12:54:50.909Z,3.93
2022-09-10T13:00:32.975Z,5.10
2022-09-10T13:05:39.571Z,4.75
2022-09-10T13:10:47.239Z,5.45
2022-09-10T13:15:53.807Z,4.47
2022-09-10T13:20:57.707Z,4.38
2022-09-10T13:26:29.414Z,4.47
2022-09-10T13:31:36.151Z,3.95
2022-09-10T13:36:46.398Z,4.13
2022-09-10T13:41:56.973Z,4.15
2022-09-10T13:47:10.457Z,3.95
2022-09-10T13:52:18.127Z,3.97
2022-09-10T13:57:38.760Z,5.15
2022-09-10T14:02:45.863Z,4.13
2022-09-10T14:07:51.265Z,3.80
2022-09-10T14:12:55.824Z,3.60
2022-09-10T14:18:00.203Z,3.55
2022-09-10T14:23:13.110Z,3.97
2022-09-10T14:28:16.404Z,4.20
2022-09-10T14:33:35.644Z,4.00
2022-09-10T14:38:40.298Z,4.07
2022-09-10T14:43:44.671Z,3.13
2022-09-10T14:49:00.504Z,3.90
2022-09-10T14:54:03.815Z,3.35
2022-09-10T14:59:26.360Z,4.32
2022-09-10T15:04:30.332Z,3.80
2022-09-10T15:09:34.029Z,4.00
2022-09-10T15:14:39.446Z,4.90
2022-09-10T15:19:43.037Z,4.70
2022-09-10T15:25:08.152Z,4.38
2022-09-10T15:30:10.286Z,4.45
2022-09-10T15:35:13.979Z,4.32
2022-09-10T15:40:17.977Z,3.67
2022-09-10T15:45:22.071Z,4.50
2022-09-10T15:50:27.236Z,3.85
2022-09-10T15:55:31.140Z,3.78
2022-09-10T16:00:35.149Z,4.10
2022-09-10T16:05:38.510Z,3.97
2022-09-10T16:10:42.336Z,4.28
2022-09-10T16:16:04.897Z,4.28
2022-09-10T16:26:24.483Z,4.35
2022-09-10T16:31:29.100Z,4.95
2022-09-10T16:36:35.139Z,5.45
2022-09-10T16:41:40.271Z,4.72
2022-09-10T16:46:45.132Z,4.97
2022-09-10T16:51:48.774Z,5.18
2022-09-10T16:56:52.235Z,5.05
2022-09-10T17:01:56.064Z,5.13
2022-09-10T17:06:59.964Z,5.38
2022-09-10T17:12:03.240Z,5.05
2022-09-10T17:17:06.516Z,5.63
2022-09-10T17:22:09.914Z,5.45
2022-09-10T17:27:13.132Z,6.40
2022-09-10T17:32:16.468Z,5.88
2022-09-10T17:37:19.891Z,5.82
2022-09-10T17:42:25.201Z,5.50
2022-09-10T17:47:28.850Z,5.10
2022-09-10T17:52:32.228Z,5.70
2022-09-10T17:57:35.609Z,5.20
2022-09-10T18:02:38.988Z,6.20
2022-09-10T18:07:42.387Z,5.43
2022-09-10T18:12:46.963Z,5.45
2022-09-10T18:17:50.502Z,5.78
2022-09-10T18:22:54.236Z,5.70
2022-09-10T18:27:58.355Z,4.63
2022-09-10T18:33:01.742Z,5.20
2022-09-10T18:38:05.098Z,5.45
2022-09-10T18:43:08.862Z,5.00
2022-09-10T18:48:12.366Z,4.72
2022-09-10T18:53:15.755Z,4.70
2022-09-10T18:58:19.002Z,5.18
2022-09-10T19:03:22.276Z,5.30
2022-09-10T19:08:25.748Z,4.82
2022-09-10T19:13:34.167Z,4.75
2022-09-10T19:18:37.816Z,4.68
2022-09-10T19:23:41.164Z,4.45
2022-09-10T19:28:45.042Z,4.47
2022-09-10T19:33:48.260Z,4.90
2022-09-10T19:38:53.913Z,4.70
2022-09-10T19:43:57.337Z,4.70
2022-09-10T19:49:00.947Z,4.38
2022-09-10T19:54:05.175Z,4.38
2022-09-10T19:59:09.253Z,4.90
2022-09-10T20:04:15.040Z,4.03
2022-09-10T20:09:22.485Z,4.30
2022-09-10T20:14:29.105Z,4.35
2022-09-10T20:19:32.588Z,4.05
2022-09-10T20:24:35.896Z,5.07
2022-09-10T20:29:39.233Z,4.35
2022-09-10T20:34:43.699Z,4.88
2022-09-10T20:39:47.109Z,4.20
2022-09-10T20:44:50.663Z,3.67
2022-09-10T20:49:54.290Z,4.15
2022-09-10T20:54:57.689Z,3.83
2022-09-10T21:00:07.266Z,3.75
2022-09-10T21:05:11.220Z,4.22
2022-09-10T21:10:14.943Z,3.75
2022-09-10T21:15:18.396Z,3.63
2022-09-10T21:20:22.415Z,3.55
2022-09-10T21:25:25.903Z,3.65
2022-09-10T21:30:29.202Z,3.65
2022-09-10T21:35:32.471Z,3.67
2022-09-10T21:40:35.723Z,3.28
2022-09-10T21:45:39.253Z,3.08
2022-09-10T21:50:42.592Z,3.50
2022-09-10T21:55:46.004Z,3.30
2022-09-10T22:00:49.642Z,2.97
2022-09-10T22:05:53.197Z,3.75
2022-09-10T22:10:56.752Z,3.25
2022-09-10T22:16:00.150Z,2.88
2022-09-10T22:21:07.479Z,2.80
2022-09-10T22:26:16.528Z,2.80
2022-09-10T22:31:26.512Z,2.95
2022-09-10T22:36:37.886Z,2.70
2022-09-10T22:41:42.273Z,3.10
2022-09-10T22:46:46.143Z,3.00
2022-09-10T22:51:50.299Z,3.30
2022-09-10T22:56:56.049Z,2.95
2022-09-10T23:02:05.558Z,3.10
2022-09-10T23:07:09.399Z,3.10
2022-09-10T23:12:12.853Z,2.70
2022-09-10T23:17:20.657Z,2.40
2022-09-10T23:22:26.170Z,2.88
2022-09-10T23:27:29.431Z,3.13
2022-09-10T23:32:32.723Z,3.28
2022-09-10T23:37:37.112Z,3.08
2022-09-10T23:42:40.670Z,4.18
2022-09-10T23:47:44.696Z,4.47
2022-09-10T23:52:48.084Z,4.32
2022-09-10T23:57:51.742Z,4.00
